Time;durP1;ratioP1;P1;durP2;ratioP2;P2;SDS_P1;SDS_P2;PMS_P1;PMS_P2;Temp;Humidity;BMP_temperature;BMP_pressure;BME280_temperature;BME280_humidity;BME280_pressure;Samples;Min_cycle;Max_cycle;Signal;HPM_P1;HPM_P2
2022/08/27 05:00:17;;;;;;;37.50;33.97;;;21.30;97.20;;;;;;1734491;28;20708;-72
2022/08/27 05:01:08;;;;;;;37.55;34.25;;;21.30;97.20;;;;;;1734661;28;20613;-72
2022/08/27 05:02:00;;;;;;;36.20;32.97;;;21.30;97.20;;;;;;1734527;28;20255;-72
2022/08/27 05:02:51;;;;;;;38.75;35.08;;;21.30;97.20;;;;;;1734649;28;20261;-72
2022/08/27 05:03:44;;;;;;;38.40;34.70;;;21.30;97.20;;;;;;1734699;28;20262;-72
2022/08/27 05:04:39;;;;;;;38.47;34.83;;;21.30;97.20;;;;;;1734625;28;20200;-72
2022/08/27 05:05:30;;;;;;;38.78;35.33;;;21.30;97.20;;;;;;1734715;28;20230;-72
2022/08/27 05:06:22;;;;;;;38.83;35.33;;;21.30;97.20;;;;;;1733961;28;20210;-72
2022/08/27 05:07:13;;;;;;;38.40;34.80;;;21.30;97.20;;;;;;1733699;28;20271;-72
2022/08/27 05:08:05;;;;;;;38.95;35.35;;;21.30;97.20;;;;;;1727822;28;20205;-72
2022/08/27 05:08:57;;;;;;;39.53;35.67;;;21.30;97.20;;;;;;1727710;28;20231;-72
2022/08/27 05:09:48;;;;;;;40.88;36.38;;;21.30;97.20;;;;;;1727727;28;20220;-72
2022/08/27 05:10:41;;;;;;;38.83;34.70;;;21.30;97.20;;;;;;1727759;28;20304;-72
2022/08/27 05:11:33;;;;;;;37.78;34.20;;;21.30;97.20;;;;;;1727794;28;20663;-72
2022/08/27 05:12:25;;;;;;;37.70;34.15;;;21.30;97.20;;;;;;1727782;28;20210;-72
2022/08/27 05:13:18;;;;;;;39.92;36.15;;;21.30;97.20;;;;;;1727760;28;20404;-72
2022/08/27 05:14:12;;;;;;;38.17;34.67;;;21.30;97.20;;;;;;1727730;28;20205;-72
2022/08/27 05:15:03;;;;;;;39.40;35.50;;;21.30;97.20;;;;;;1727738;28;20595;-72
2022/08/27 05:16:00;;;;;;;40.30;36.25;;;21.30;97.20;;;;;;1727733;28;20200;-72
2022/08/27 05:16:51;;;;;;;41.58;37.47;;;21.20;97.20;;;;;;1727726;28;20197;-72
2022/08/27 05:17:43;;;;;;;39.50;35.73;;;21.20;97.20;;;;;;1727512;28;20275;-72
2022/08/27 05:18:35;;;;;;;38.35;34.72;;;21.20;97.20;;;;;;1727666;28;20208;-72
2022/08/27 05:19:27;;;;;;;41.00;37.10;;;21.20;97.20;;;;;;1727852;28;20197;-72
2022/08/27 05:20:18;;;;;;;39.53;35.80;;;21.20;97.20;;;;;;1728737;28;20204;-72
2022/08/27 05:21:17;;;;;;;42.20;38.03;;;21.20;97.20;;;;;;1734410;28;20581;-72
2022/08/27 05:22:08;;;;;;;40.78;36.53;;;21.20;97.20;;;;;;1734210;28;20243;-72
2022/08/27 05:23:00;;;;;;;41.37;37.10;;;21.30;97.20;;;;;;1734513;28;20203;-72
2022/08/27 05:23:53;;;;;;;40.65;36.55;;;21.20;97.20;;;;;;1734489;28;20203;-72
2022/08/27 05:24:44;;;;;;;42.33;38.05;;;21.20;97.20;;;;;;1734562;28;20603;-72
2022/08/27 05:25:38;;;;;;;38.75;35.22;;;21.20;97.20;;;;;;1734445;28;20204;-72
2022/08/27 05:26:30;;;;;;;42.25;38.08;;;21.20;97.20;;;;;;1734458;28;20261;-72
2022/08/27 05:27:21;;;;;;;42.25;38.03;;;21.20;97.20;;;;;;1734230;28;20211;-72
2022/08/27 05:28:13;;;;;;;40.53;36.40;;;21.20;97.20;;;;;;1734500;28;20279;-71
2022/08/27 05:29:05;;;;;;;40.67;36.58;;;21.20;97.20;;;;;;1734401;28;20211;-72
2022/08/27 05:29:57;;;;;;;39.13;35.33;;;21.20;97.20;;;;;;1734410;28;20221;-72
2022/08/27 05:30:50;;;;;;;40.90;36.95;;;21.30;97.20;;;;;;1734382;28;20227;-72
2022/08/27 05:31:46;;;;;;;38.33;34.63;;;21.30;97.20;;;;;;1734448;28;20279;-72
2022/08/27 05:32:37;;;;;;;39.80;35.90;;;21.30;97.20;;;;;;1734514;28;20211;-72
2022/08/27 05:33:30;;;;;;;38.00;34.23;;;21.30;97.20;;;;;;1734405;28;20286;-72
2022/08/27 05:34:21;;;;;;;39.25;35.28;;;21.30;97.20;;;;;;1734296;28;21012;-72
2022/08/27 05:35:13;;;;;;;39.97;35.97;;;21.30;97.20;;;;;;1734459;28;20200;-72
2022/08/27 05:36:05;;;;;;;39.25;35.63;;;21.30;97.20;;;;;;1734369;28;20218;-71
2022/08/27 05:36:57;;;;;;;39.53;35.83;;;21.30;97.20;;;;;;1734320;28;20207;-72
2022/08/27 05:37:48;;;;;;;37.97;34.33;;;21.30;97.20;;;;;;1734156;28;20211;-72
2022/08/27 05:38:40;;;;;;;38.60;34.75;;;21.30;97.20;;;;;;1734343;28;20568;-72
2022/08/27 05:39:31;;;;;;;37.10;33.50;;;21.30;97.20;;;;;;1734407;28;20214;-72
2022/08/27 05:40:23;;;;;;;37.80;34.03;;;21.30;97.20;;;;;;1734427;28;20207;-72
2022/08/27 05:41:16;;;;;;;38.30;34.65;;;21.30;97.20;;;;;;1734351;28;20600;-72
2022/08/27 05:42:08;;;;;;;38.10;34.40;;;21.30;97.20;;;;;;1734408;28;20242;-72
2022/08/27 05:42:58;;;;;;;37.58;34.08;;;21.30;97.20;;;;;;1734334;28;20200;-72
2022/08/27 05:43:50;;;;;;;38.27;34.53;;;21.30;97.20;;;;;;1734394;28;20202;-72
2022/08/27 05:44:41;;;;;;;38.55;34.78;;;21.30;97.20;;;;;;1734357;28;20231;-72
2022/08/27 05:45:34;;;;;;;37.90;34.10;;;21.30;97.20;;;;;;1734355;28;20298;-72
2022/08/27 05:46:26;;;;;;;40.55;36.45;;;21.30;97.20;;;;;;1734335;28;20681;-72
2022/08/27 05:47:19;;;;;;;38.00;34.13;;;21.30;97.20;;;;;;1734042;28;20571;-71
2022/08/27 05:48:10;;;;;;;37.80;34.20;;;21.30;97.20;;;;;;1734357;28;20204;-71
2022/08/27 05:49:02;;;;;;;37.72;34.13;;;21.30;97.20;;;;;;1733926;28;20191;-71
2022/08/27 05:49:53;;;;;;;37.70;34.00;;;21.30;97.20;;;;;;1734273;28;20212;-71
2022/08/27 05:50:45;;;;;;;38.45;34.45;;;21.40;97.20;;;;;;1734209;28;20224;-71
2022/08/27 05:51:37;;;;;;;37.80;33.92;;;21.40;97.20;;;;;;1734247;28;20230;-71
2022/08/27 05:52:29;;;;;;;38.53;34.45;;;21.40;97.20;;;;;;1734342;28;20245;-71
2022/08/27 05:53:19;;;;;;;37.22;33.72;;;21.40;97.20;;;;;;1734360;28;20211;-71
2022/08/27 05:54:18;;;;;;;37.37;33.70;;;21.40;97.20;;;;;;1734271;28;20286;-71
2022/08/27 05:55:08;;;;;;;37.55;34.08;;;21.40;97.20;;;;;;1734347;28;20567;-71
2022/08/27 05:56:00;;;;;;;39.63;35.80;;;21.40;97.20;;;;;;1734350;28;20641;-71
2022/08/27 05:56:51;;;;;;;38.47;34.85;;;21.40;97.20;;;;;;1733886;28;20196;-71
2022/08/27 05:57:43;;;;;;;39.10;35.50;;;21.40;97.20;;;;;;1734039;28;20295;-71
2022/08/27 06:01:04;;;;;;;37.28;33.65;;;21.50;97.20;;;;;;1728815;28;20281;-71
2022/08/27 06:01:55;;;;;;;38.17;34.30;;;21.50;97.20;;;;;;1734134;28;20203;-71
2022/08/27 06:02:48;;;;;;;38.20;34.50;;;21.50;97.20;;;;;;1734026;28;20202;-71
2022/08/27 06:03:40;;;;;;;37.70;33.97;;;21.50;97.20;;;;;;1734343;28;20207;-71
2022/08/27 06:04:32;;;;;;;37.53;33.83;;;21.50;97.20;;;;;;1734274;28;20196;-71
2022/08/27 06:05:23;;;;;;;37.33;33.63;;;21.50;97.20;;;;;;1734309;28;20211;-71
2022/08/27 06:06:15;;;;;;;36.22;32.63;;;21.50;97.20;;;;;;1734279;28;20706;-71
2022/08/27 06:07:08;;;;;;;37.17;33.47;;;21.50;97.20;;;;;;1734175;28;20211;-71
2022/08/27 06:07:59;;;;;;;35.33;32.00;;;21.50;97.20;;;;;;1734089;28;20207;-71
2022/08/27 06:08:53;;;;;;;36.92;33.42;;;21.50;97.20;;;;;;1734154;28;20208;-71
2022/08/27 06:09:44;;;;;;;38.75;33.65;;;21.50;97.20;;;;;;1734159;28;20206;-71
2022/08/27 06:10:38;;;;;;;39.17;35.28;;;21.60;97.20;;;;;;1734110;28;20573;-71
2022/08/27 06:11:30;;;;;;;37.45;33.72;;;21.60;97.20;;;;;;1734320;28;20666;-71
2022/08/27 06:12:21;;;;;;;36.72;33.30;;;21.60;97.20;;;;;;1734309;28;20593;-71
2022/08/27 06:13:12;;;;;;;37.13;33.83;;;21.60;97.20;;;;;;1734316;28;20567;-71
2022/08/27 06:14:05;;;;;;;36.35;32.85;;;21.60;97.20;;;;;;1734210;28;20449;-71
2022/08/27 06:14:56;;;;;;;37.95;34.20;;;21.60;97.20;;;;;;1734179;28;20206;-71
2022/08/27 06:15:47;;;;;;;36.58;32.92;;;21.60;97.20;;;;;;1734254;28;20206;-71
2022/08/27 06:16:40;;;;;;;35.90;32.35;;;21.60;97.20;;;;;;1733910;28;20206;-71
2022/08/27 06:17:30;;;;;;;36.63;33.22;;;21.60;97.20;;;;;;1733613;28;20215;-71
2022/08/27 06:18:23;;;;;;;37.13;33.63;;;21.60;97.20;;;;;;1727494;28;20196;-71
2022/08/27 06:19:15;;;;;;;35.72;31.80;;;21.70;97.20;;;;;;1727340;28;20204;-71
2022/08/27 06:20:09;;;;;;;35.83;32.33;;;21.70;97.20;;;;;;1727402;28;20666;-71
2022/08/27 06:21:00;;;;;;;34.08;30.88;;;21.70;97.20;;;;;;1727424;28;20200;-71
2022/08/27 06:21:51;;;;;;;34.43;31.23;;;21.70;97.20;;;;;;1727404;28;20208;-71
2022/08/27 06:22:44;;;;;;;34.88;31.58;;;21.70;97.20;;;;;;1727423;28;20599;-71
2022/08/27 06:23:35;;;;;;;37.00;33.15;;;21.70;97.20;;;;;;1727408;28;20201;-71
2022/08/27 06:24:27;;;;;;;38.58;34.70;;;21.70;97.20;;;;;;1727397;28;20204;-71
2022/08/27 06:25:18;;;;;;;35.97;32.35;;;21.70;97.20;;;;;;1727338;28;20204;-71
2022/08/27 06:26:12;;;;;;;35.97;32.50;;;21.70;97.20;;;;;;1727379;28;20272;-71
2022/08/27 06:27:03;;;;;;;35.22;31.83;;;21.70;97.20;;;;;;1727378;28;20201;-70
2022/08/27 06:27:54;;;;;;;36.73;32.87;;;21.70;97.20;;;;;;1727107;28;20279;-71
2022/08/27 06:28:45;;;;;;;36.47;33.00;;;21.70;97.20;;;;;;1727311;28;20443;-71
2022/08/27 06:29:37;;;;;;;36.93;33.43;;;21.70;97.20;;;;;;1727366;28;20275;-71
2022/08/27 06:30:28;;;;;;;37.10;33.58;;;21.70;97.20;;;;;;1727281;28;20224;-71
2022/08/27 06:31:22;;;;;;;38.20;34.47;;;21.70;97.20;;;;;;1733388;28;20208;-71
2022/08/27 06:32:13;;;;;;;37.20;33.70;;;21.70;97.20;;;;;;1734096;28;20223;-71
2022/08/27 06:33:05;;;;;;;36.55;32.50;;;21.70;97.20;;;;;;1734143;28;20202;-71
2022/08/27 06:34:00;;;;;;;36.72;33.20;;;21.70;97.20;;;;;;1733466;28;20208;-71
2022/08/27 06:34:52;;;;;;;36.38;32.88;;;21.70;97.20;;;;;;1734232;28;20610;-71
2022/08/27 06:35:43;;;;;;;36.35;32.95;;;21.70;97.20;;;;;;1734148;28;20588;-71
2022/08/27 06:36:37;;;;;;;38.23;34.37;;;21.70;97.20;;;;;;1734226;28;20330;-71
2022/08/27 06:37:29;;;;;;;35.30;31.77;;;21.70;97.20;;;;;;1733969;28;20685;-71
2022/08/27 06:38:20;;;;;;;38.60;34.60;;;21.70;97.20;;;;;;1734087;28;20202;-71
2022/08/27 06:39:14;;;;;;;37.17;33.67;;;21.60;97.20;;;;;;1734076;28;20670;-71
2022/08/27 06:40:08;;;;;;;38.00;34.38;;;21.60;97.20;;;;;;1734180;28;20592;-71
2022/08/27 06:40:59;;;;;;;36.95;33.30;;;21.60;97.20;;;;;;1734111;28;20231;-71
2022/08/27 06:41:51;;;;;;;36.33;32.88;;;21.60;97.20;;;;;;1734429;28;20196;-71
2022/08/27 06:42:43;;;;;;;37.25;33.75;;;21.60;97.20;;;;;;1734138;28;20588;-71
2022/08/27 06:43:35;;;;;;;37.38;33.88;;;21.60;97.20;;;;;;1734091;28;20686;-71
2022/08/27 06:44:26;;;;;;;37.10;33.60;;;21.60;97.20;;;;;;1734096;28;20226;-70
2022/08/27 06:45:18;;;;;;;37.70;33.97;;;21.60;97.20;;;;;;1733782;28;20214;-71
2022/08/27 06:46:11;;;;;;;38.22;34.42;;;21.60;97.20;;;;;;1734075;28;20822;-71
2022/08/27 06:47:03;;;;;;;37.42;33.83;;;21.60;97.20;;;;;;1734034;28;20192;-71
2022/08/27 06:47:54;;;;;;;37.08;33.50;;;21.70;97.20;;;;;;1733769;28;20204;-71
2022/08/27 06:48:47;;;;;;;36.08;32.60;;;21.70;97.20;;;;;;1733882;28;20200;-71
2022/08/27 06:49:40;;;;;;;36.88;33.38;;;21.70;97.20;;;;;;1734128;28;20238;-71
2022/08/27 06:50:37;;;;;;;37.58;33.60;;;21.70;97.20;;;;;;1734024;28;20614;-71
2022/08/27 06:51:30;;;;;;;39.95;36.05;;;21.70;97.20;;;;;;1734147;28;20208;-71
2022/08/27 06:52:22;;;;;;;39.30;35.50;;;21.70;97.20;;;;;;1734160;28;20639;-71
2022/08/27 06:53:13;;;;;;;36.22;32.80;;;21.70;97.20;;;;;;1734117;28;20207;-71
2022/08/27 06:54:07;;;;;;;38.10;34.45;;;21.70;97.20;;;;;;1734115;28;20283;-71
2022/08/27 06:54:58;;;;;;;38.28;34.78;;;21.70;97.20;;;;;;1734047;28;20211;-71
2022/08/27 06:55:50;;;;;;;36.13;32.60;;;21.70;97.20;;;;;;1734195;28;20294;-71
2022/08/27 06:56:43;;;;;;;38.65;34.85;;;21.70;97.20;;;;;;1734007;28;20218;-71
2022/08/27 06:57:34;;;;;;;38.20;34.50;;;21.70;97.20;;;;;;1733912;28;20207;-70
2022/08/27 06:58:25;;;;;;;36.95;33.15;;;21.70;97.20;;;;;;1734017;28;20215;-71
2022/08/27 06:59:19;;;;;;;38.07;34.07;;;21.70;97.20;;;;;;1733400;28;20270;-71
2022/08/27 07:00:11;;;;;;;36.75;33.03;;;21.70;97.20;;;;;;1733433;28;20208;-71
2022/08/27 07:01:12;;;;;;;37.70;34.15;;;21.70;97.20;;;;;;1733849;28;20206;-71
2022/08/27 07:02:03;;;;;;;38.65;35.10;;;21.70;97.20;;;;;;1734155;28;20291;-71
2022/08/27 07:02:55;;;;;;;37.77;34.20;;;21.80;97.20;;;;;;1733958;28;20227;-71
2022/08/27 07:03:46;;;;;;;39.08;34.60;;;21.80;97.20;;;;;;1734067;28;20291;-71
2022/08/27 07:04:37;;;;;;;38.77;35.20;;;21.80;97.20;;;;;;1734073;28;20209;-71
2022/08/27 07:05:30;;;;;;;38.25;34.33;;;21.80;97.20;;;;;;1734106;28;20212;-71
2022/08/27 07:06:22;;;;;;;38.30;34.38;;;21.80;97.20;;;;;;1734043;28;20624;-71
2022/08/27 07:07:13;;;;;;;37.83;34.25;;;21.80;97.20;;;;;;1733746;28;20211;-71
2022/08/27 07:08:06;;;;;;;38.70;34.80;;;21.80;97.20;;;;;;1734158;28;20200;-71
2022/08/27 07:08:58;;;;;;;38.53;34.90;;;21.80;97.20;;;;;;1733905;28;20202;-71
2022/08/27 07:09:50;;;;;;;38.45;34.80;;;21.80;97.20;;;;;;1734010;28;20204;-71
2022/08/27 07:10:41;;;;;;;38.50;35.00;;;21.80;97.20;;;;;;1733881;28;20215;-71
2022/08/27 07:11:33;;;;;;;38.92;34.83;;;21.80;97.20;;;;;;1734002;28;20204;-71
2022/08/27 07:12:25;;;;;;;39.65;35.42;;;21.80;97.20;;;;;;1734111;28;20200;-71
2022/08/27 07:13:16;;;;;;;36.35;32.85;;;21.80;97.20;;;;;;1733365;28;20574;-71
2022/08/27 07:14:08;;;;;;;37.07;33.30;;;21.80;97.20;;;;;;1733771;28;20192;-71
2022/08/27 07:14:59;;;;;;;39.33;35.40;;;21.80;97.20;;;;;;1733966;28;20207;-71
2022/08/27 07:15:50;;;;;;;38.23;34.53;;;21.80;97.20;;;;;;1734070;28;20227;-71
2022/08/27 07:16:42;;;;;;;35.72;32.05;;;21.80;97.20;;;;;;1734025;28;20685;-71
2022/08/27 07:17:33;;;;;;;35.08;31.73;;;21.90;97.20;;;;;;1733197;28;20192;-71
2022/08/27 07:18:24;;;;;;;39.22;35.47;;;21.90;97.20;;;;;;1733581;28;20211;-71
2022/08/27 07:19:16;;;;;;;37.92;34.33;;;21.90;97.20;;;;;;1733913;28;20192;-71
2022/08/27 07:20:08;;;;;;;36.85;33.08;;;21.90;97.20;;;;;;1734016;28;20211;-71
2022/08/27 07:21:02;;;;;;;36.35;32.80;;;21.90;97.20;;;;;;1733957;28;20211;-71
2022/08/27 07:21:53;;;;;;;39.15;35.13;;;22.00;97.20;;;;;;1733813;28;20238;-71
2022/08/27 07:22:46;;;;;;;35.77;32.20;;;22.00;97.20;;;;;;1733956;28;20236;-71
2022/08/27 07:23:38;;;;;;;36.47;32.90;;;22.00;97.20;;;;;;1734008;28;20211;-71
2022/08/27 07:24:30;;;;;;;35.28;32.03;;;22.00;97.20;;;;;;1734082;28;20196;-71
2022/08/27 07:25:21;;;;;;;36.13;32.53;;;22.00;97.20;;;;;;1733935;28;20204;-71
2022/08/27 07:26:14;;;;;;;36.70;33.10;;;22.00;97.20;;;;;;1733989;28;20232;-71
2022/08/27 07:27:05;;;;;;;34.72;31.23;;;22.00;97.20;;;;;;1733772;28;20199;-71
2022/08/27 07:27:57;;;;;;;35.65;31.90;;;22.00;97.20;;;;;;1733632;28;20199;-71
2022/08/27 07:28:49;;;;;;;35.65;32.03;;;22.00;97.20;;;;;;1733909;28;20219;-71
2022/08/27 07:29:40;;;;;;;34.50;31.30;;;22.10;97.20;;;;;;1733959;28;20204;-71
2022/08/27 07:30:31;;;;;;;36.63;32.78;;;22.10;97.20;;;;;;1733843;28;20239;-71
2022/08/27 07:31:24;;;;;;;38.20;34.10;;;22.10;97.20;;;;;;1734028;28;20200;-70
2022/08/27 07:32:15;;;;;;;35.67;32.13;;;22.10;97.20;;;;;;1733909;28;20204;-71
2022/08/27 07:33:07;;;;;;;34.27;30.87;;;22.10;97.20;;;;;;1733977;28;20279;-71
2022/08/27 07:33:57;;;;;;;35.58;32.20;;;22.10;97.20;;;;;;1734009;28;20589;-71
2022/08/27 07:34:49;;;;;;;34.10;30.77;;;22.10;97.20;;;;;;1733967;28;20228;-71
2022/08/27 07:35:40;;;;;;;35.78;32.30;;;22.10;97.20;;;;;;1733973;28;20207;-70
2022/08/27 07:36:34;;;;;;;35.13;31.47;;;22.10;97.20;;;;;;1733955;28;20291;-70
2022/08/27 07:37:25;;;;;;;37.13;33.33;;;22.10;97.20;;;;;;1733616;28;20231;-71
2022/08/27 07:38:18;;;;;;;34.42;31.08;;;22.00;97.20;;;;;;1733906;28;20230;-71
2022/08/27 07:39:09;;;;;;;36.60;32.85;;;22.00;97.20;;;;;;1733873;28;20242;-71
2022/08/27 07:40:01;;;;;;;36.37;32.67;;;22.00;97.20;;;;;;1733969;28;20258;-71
2022/08/27 07:40:52;;;;;;;34.38;30.90;;;22.00;97.20;;;;;;1733822;28;20839;-71
2022/08/27 07:45:11;;;;;;;35.50;32.10;;;22.00;97.20;;;;;;1734288;28;20249;-71
2022/08/27 07:46:04;;;;;;;36.10;32.10;;;22.00;97.20;;;;;;1735188;28;20215;-71
2022/08/27 07:46:57;;;;;;;35.60;32.03;;;22.00;97.20;;;;;;1735143;28;20191;-72
2022/08/27 07:47:49;;;;;;;33.05;29.75;;;22.00;97.20;;;;;;1734767;28;20245;-71
2022/08/27 07:48:40;;;;;;;34.42;31.00;;;21.90;97.20;;;;;;1735036;28;20197;-71
2022/08/27 07:49:34;;;;;;;36.17;31.77;;;21.90;97.20;;;;;;1735157;28;20579;-71
2022/08/27 07:50:26;;;;;;;36.50;32.90;;;22.00;97.20;;;;;;1734719;28;20681;-71
2022/08/27 07:51:19;;;;;;;35.90;32.28;;;21.90;97.20;;;;;;1735005;28;20203;-72
2022/08/27 07:52:12;;;;;;;34.22;31.00;;;21.90;97.20;;;;;;1735135;28;20200;-71
2022/08/27 07:53:03;;;;;;;32.92;29.80;;;22.00;97.20;;;;;;1735192;28;20600;-71
2022/08/27 07:53:55;;;;;;;33.53;30.33;;;22.00;97.20;;;;;;1735034;28;20284;-71
2022/08/27 07:54:46;;;;;;;33.45;30.30;;;22.00;97.20;;;;;;1735157;28;20204;-71
2022/08/27 07:55:37;;;;;;;34.80;31.23;;;22.00;97.20;;;;;;1735110;28;20227;-71
2022/08/27 07:56:28;;;;;;;32.92;29.60;;;22.00;97.20;;;;;;1735093;28;20450;-71
2022/08/27 07:57:20;;;;;;;31.73;28.63;;;22.00;97.20;;;;;;1734770;28;20734;-72
2022/08/27 07:58:12;;;;;;;38.35;34.25;;;22.00;97.20;;;;;;1735042;28;20746;-71
2022/08/27 07:59:03;;;;;;;33.35;30.15;;;22.00;97.20;;;;;;1735067;28;20202;-71
2022/08/27 07:59:54;;;;;;;35.25;31.95;;;22.00;97.20;;;;;;1735078;28;20215;-71
2022/08/27 08:00:46;;;;;;;33.23;30.10;;;22.00;97.20;;;;;;1734941;28;20338;-71
2022/08/27 08:01:37;;;;;;;34.30;31.17;;;22.00;97.20;;;;;;1735015;28;20573;-71
2022/08/27 08:02:29;;;;;;;32.15;29.10;;;22.00;97.20;;;;;;1735000;28;20698;-71
2022/08/27 08:03:20;;;;;;;33.83;30.52;;;22.00;97.20;;;;;;1734980;28;20588;-71
2022/08/27 08:04:12;;;;;;;35.30;31.80;;;22.00;97.20;;;;;;1735096;28;20641;-71
2022/08/27 08:05:05;;;;;;;35.53;32.03;;;22.00;97.20;;;;;;1734817;28;20654;-71
2022/08/27 08:05:57;;;;;;;34.58;30.98;;;22.00;97.20;;;;;;1735055;28;20191;-71
2022/08/27 08:06:48;;;;;;;36.15;32.33;;;22.00;97.20;;;;;;1734932;28;20234;-71
2022/08/27 08:07:42;;;;;;;36.42;32.75;;;22.00;97.20;;;;;;1734856;28;20199;-71
2022/08/27 08:08:34;;;;;;;35.35;32.00;;;22.00;97.20;;;;;;1734946;28;20204;-71
2022/08/27 08:09:25;;;;;;;34.90;31.60;;;22.00;97.20;;;;;;1735005;28;20666;-71
2022/08/27 08:10:18;;;;;;;35.92;32.15;;;22.00;97.20;;;;;;1734889;28;20203;-71
2022/08/27 08:11:11;;;;;;;33.47;30.08;;;22.00;97.20;;;;;;1734989;28;20681;-71
2022/08/27 08:12:02;;;;;;;33.22;29.73;;;22.00;97.20;;;;;;1735015;28;20207;-71
2022/08/27 08:12:54;;;;;;;35.10;31.70;;;22.00;97.20;;;;;;1734660;28;20214;-71
2022/08/27 08:13:46;;;;;;;37.22;33.42;;;22.00;97.20;;;;;;1734940;28;20204;-71
2022/08/27 08:14:38;;;;;;;35.28;31.88;;;22.00;97.20;;;;;;1734909;28;20210;-71
2022/08/27 08:15:29;;;;;;;34.95;31.45;;;22.00;97.20;;;;;;1734949;28;20199;-71
2022/08/27 08:16:23;;;;;;;37.37;32.70;;;22.00;97.20;;;;;;1734974;28;20206;-71
2022/08/27 08:17:14;;;;;;;36.13;32.60;;;22.00;97.20;;;;;;1734584;28;20454;-71
2022/08/27 08:18:06;;;;;;;36.73;33.13;;;22.00;97.20;;;;;;1735001;28;20278;-71
2022/08/27 08:18:59;;;;;;;37.70;34.10;;;22.00;97.20;;;;;;1734233;28;20196;-71
2022/08/27 08:19:51;;;;;;;36.35;32.85;;;22.00;97.20;;;;;;1733746;28;20326;-71
2022/08/27 08:20:42;;;;;;;36.72;32.90;;;22.00;97.20;;;;;;1734893;28;20227;-71
2022/08/27 08:21:34;;;;;;;35.37;31.73;;;22.00;97.20;;;;;;1734851;28;20722;-71
2022/08/27 08:22:26;;;;;;;33.85;30.75;;;22.00;97.20;;;;;;1734586;28;20192;-71
2022/08/27 08:23:19;;;;;;;35.78;32.17;;;22.00;97.20;;;;;;1734836;28;20223;-71
2022/08/27 08:24:10;;;;;;;35.45;31.83;;;22.00;97.20;;;;;;1734969;28;20428;-71
2022/08/27 08:25:02;;;;;;;36.07;32.43;;;22.00;97.20;;;;;;1735063;28;20196;-72
2022/08/27 08:25:53;;;;;;;35.60;31.85;;;22.00;97.20;;;;;;1734954;28;20718;-71
2022/08/27 08:26:46;;;;;;;37.53;31.65;;;22.00;97.20;;;;;;1734875;28;20204;-71
2022/08/27 08:27:36;;;;;;;35.20;31.65;;;22.00;97.20;;;;;;1734651;28;20215;-71
2022/08/27 08:28:29;;;;;;;35.23;31.83;;;22.00;97.20;;;;;;1734822;28;20549;-72
2022/08/27 08:29:19;;;;;;;33.25;30.20;;;22.00;97.20;;;;;;1734847;28;20670;-71
2022/08/27 08:30:12;;;;;;;35.47;31.83;;;22.00;97.20;;;;;;1734842;28;20662;-71
2022/08/27 08:31:05;;;;;;;36.38;32.53;;;22.00;97.20;;;;;;1734841;28;20210;-71
2022/08/27 08:31:56;;;;;;;33.80;30.60;;;22.00;97.20;;;;;;1734743;28;20291;-72
2022/08/27 08:32:47;;;;;;;34.47;31.05;;;22.00;97.20;;;;;;1734459;28;20204;-71
2022/08/27 08:33:39;;;;;;;33.07;29.77;;;22.00;97.20;;;;;;1734855;28;20286;-71
2022/08/27 08:34:30;;;;;;;34.40;30.98;;;22.00;97.20;;;;;;1734808;28;20204;-71
2022/08/27 08:35:23;;;;;;;37.60;33.90;;;22.00;97.20;;;;;;1734842;28;20204;-71
2022/08/27 08:36:15;;;;;;;34.63;31.33;;;22.00;97.20;;;;;;1734786;28;20291;-71
2022/08/27 08:37:08;;;;;;;34.05;30.70;;;22.00;97.20;;;;;;1734829;28;20206;-71
2022/08/27 08:37:58;;;;;;;32.92;29.63;;;22.00;97.20;;;;;;1734593;28;20608;-72
2022/08/27 08:38:51;;;;;;;32.63;29.20;;;22.10;97.20;;;;;;1734714;28;20678;-71
2022/08/27 08:39:42;;;;;;;31.90;28.80;;;22.10;97.20;;;;;;1734849;28;20204;-73
2022/08/27 08:40:38;;;;;;;37.57;33.60;;;22.10;97.20;;;;;;1734669;28;20312;-71
2022/08/27 08:41:39;;;;;;;34.22;30.73;;;22.10;97.20;;;;;;1734817;28;20469;-71
2022/08/27 08:42:36;;;;;;;36.42;32.50;;;22.10;97.20;;;;;;1734846;28;20206;-71
2022/08/27 08:43:31;;;;;;;33.83;29.42;;;22.10;97.20;;;;;;1734748;28;20702;-71
2022/08/27 08:44:31;;;;;;;33.92;30.48;;;22.10;97.20;;;;;;1734856;28;20196;-72
2022/08/27 08:45:25;;;;;;;33.60;30.25;;;22.20;97.20;;;;;;1734747;28;20230;-71
2022/08/27 08:46:25;;;;;;;34.05;29.42;;;22.20;97.20;;;;;;1734708;28;20569;-71
2022/08/27 08:47:21;;;;;;;35.72;32.08;;;22.20;97.20;;;;;;1734012;28;20203;-71
2022/08/27 08:48:18;;;;;;;33.50;29.80;;;22.20;97.20;;;;;;1732798;28;20643;-71
2022/08/27 08:49:16;;;;;;;34.95;31.48;;;22.20;97.20;;;;;;1734669;28;20204;-72
2022/08/27 08:50:13;;;;;;;34.22;31.02;;;22.20;97.20;;;;;;1734849;28;20678;-71
2022/08/27 08:51:12;;;;;;;33.33;30.02;;;22.30;97.20;;;;;;1734757;28;20204;-71
2022/08/27 08:52:11;;;;;;;35.25;31.85;;;22.30;97.20;;;;;;1734743;28;20219;-71
2022/08/27 08:53:06;;;;;;;34.05;30.75;;;22.30;97.20;;;;;;1734770;28;20204;-71
2022/08/27 08:54:03;;;;;;;36.83;30.92;;;22.30;97.20;;;;;;1734768;28;20200;-72
2022/08/27 08:54:59;;;;;;;35.55;31.90;;;22.30;97.20;;;;;;1734696;28;20195;-71
2022/08/27 08:55:55;;;;;;;36.13;32.45;;;22.30;97.20;;;;;;1734746;28;20196;-71
2022/08/27 08:56:55;;;;;;;35.70;32.10;;;22.30;97.20;;;;;;1734307;28;20200;-72
2022/08/27 08:57:51;;;;;;;33.72;30.52;;;22.30;97.20;;;;;;1734449;28;20200;-71
2022/08/27 08:58:49;;;;;;;36.45;32.55;;;22.40;97.20;;;;;;1734627;28;20210;-71
2022/08/27 08:59:44;;;;;;;36.08;32.55;;;22.40;97.20;;;;;;1734621;28;20204;-71
2022/08/27 09:00:38;;;;;;;34.88;31.42;;;22.40;97.20;;;;;;1734212;28;20232;-71
2022/08/27 09:01:29;;;;;;;33.97;30.50;;;22.40;97.20;;;;;;1733507;28;20609;-71
2022/08/27 09:02:21;;;;;;;33.27;29.97;;;22.40;97.20;;;;;;1734373;28;20195;-71
2022/08/27 09:03:13;;;;;;;37.03;33.40;;;22.40;97.20;;;;;;1734572;28;20922;-72
2022/08/27 09:04:10;;;;;;;35.03;31.63;;;22.40;97.20;;;;;;1734727;28;20204;-71
2022/08/27 09:05:04;;;;;;;34.63;31.23;;;22.40;97.20;;;;;;1734613;28;20204;-71
2022/08/27 09:06:02;;;;;;;33.97;30.73;;;22.40;97.20;;;;;;1734599;28;20200;-71
2022/08/27 09:06:57;;;;;;;32.65;29.65;;;22.40;97.20;;;;;;1734247;28;20200;-72
2022/08/27 09:07:55;;;;;;;33.70;30.40;;;22.50;97.20;;;;;;1734431;28;20210;-71
2022/08/27 09:08:46;;;;;;;36.42;32.75;;;22.50;97.20;;;;;;1734206;28;20211;-71
2022/08/27 09:09:47;;;;;;;35.92;32.33;;;22.50;97.20;;;;;;1734236;28;20196;-71
2022/08/27 09:10:43;;;;;;;35.40;31.60;;;22.50;97.20;;;;;;1734597;28;20224;-71
2022/08/27 09:11:41;;;;;;;35.38;32.05;;;22.40;97.20;;;;;;1734668;28;20589;-71
2022/08/27 09:12:32;;;;;;;36.95;32.42;;;22.40;97.20;;;;;;1734597;28;20204;-71
2022/08/27 09:13:26;;;;;;;36.55;33.08;;;22.40;97.20;;;;;;1734646;28;20620;-71
2022/08/27 09:14:25;;;;;;;36.22;32.55;;;22.40;97.20;;;;;;1734631;28;20655;-71
2022/08/27 09:15:21;;;;;;;34.08;30.75;;;22.40;97.20;;;;;;1734622;28;20196;-71
2022/08/27 09:16:12;;;;;;;35.10;31.45;;;22.40;97.20;;;;;;1734576;28;20209;-71
2022/08/27 09:17:06;;;;;;;37.20;33.20;;;22.40;97.20;;;;;;1734570;28;20270;-72
2022/08/27 09:18:05;;;;;;;36.60;33.10;;;22.40;97.20;;;;;;1734202;28;20454;-71
2022/08/27 09:18:57;;;;;;;34.53;31.00;;;22.40;97.20;;;;;;1734537;28;20191;-71
2022/08/27 09:19:48;;;;;;;33.85;30.52;;;22.40;97.20;;;;;;1734594;28;20627;-72
2022/08/27 09:20:42;;;;;;;35.67;32.13;;;22.40;97.20;;;;;;1734137;28;20398;-72
2022/08/27 09:21:44;;;;;;;37.40;33.60;;;22.40;97.20;;;;;;1734411;28;20451;-71
2022/08/27 09:22:47;;;;;;;36.03;32.45;;;22.30;97.20;;;;;;1734528;28;20659;-71
2022/08/27 09:23:45;;;;;;;36.55;32.78;;;22.30;97.20;;;;;;1734481;28;20224;-71
2022/08/27 09:24:58;;;;;;;35.65;30.27;;;22.30;97.20;;;;;;1734475;28;20227;-71
2022/08/27 09:25:49;;;;;;;34.85;31.25;;;22.30;97.20;;;;;;1734540;28;20694;-72
2022/08/27 09:26:43;;;;;;;35.17;31.57;;;22.30;97.20;;;;;;1734495;28;20718;-71
2022/08/27 09:27:39;;;;;;;35.00;31.58;;;22.30;97.20;;;;;;1734202;28;20585;-71
2022/08/27 09:29:48;;;;;;;38.47;34.35;;;22.30;97.20;;;;;;1734606;28;20326;-71
2022/08/27 09:30:41;;;;;;;36.10;32.30;;;22.30;97.20;;;;;;1734332;28;20362;-71
2022/08/27 09:31:39;;;;;;;34.47;30.92;;;22.30;97.20;;;;;;1734413;28;20304;-71
2022/08/27 09:32:32;;;;;;;34.97;31.27;;;22.30;97.20;;;;;;1734538;28;20204;-71
2022/08/27 09:33:24;;;;;;;36.72;33.22;;;22.30;97.20;;;;;;1734427;28;20196;-71
2022/08/27 09:34:16;;;;;;;35.85;32.22;;;22.30;97.20;;;;;;1734442;28;20204;-71
2022/08/27 09:35:11;;;;;;;36.97;33.08;;;22.30;97.20;;;;;;1734141;28;20192;-71